Time;durP1;ratioP1;P1;durP2;ratioP2;P2;SDS_P1;SDS_P2;PMS_P1;PMS_P2;Temp;Humidity;BMP_temperature;BMP_pressure;BME280_temperature;BME280_humidity;BME280_pressure;Samples;Min_cycle;Max_cycle;Signal;HPM_P1;HPM_P2
2021/05/12 00:02:13;;;;;;;25.65;17.20;;;12.50;94.10;;;;;;5068192;28;20098;-56
2021/05/12 00:04:39;;;;;;;21.70;16.90;;;12.50;94.20;;;;;;5066982;28;20048;-57
2021/05/12 00:07:05;;;;;;;23.23;17.83;;;12.50;94.20;;;;;;5074779;28;20102;-56
2021/05/12 00:09:31;;;;;;;25.85;17.85;;;12.50;94.20;;;;;;5072503;28;20705;-57
2021/05/12 00:11:56;;;;;;;28.05;19.00;;;12.50;94.10;;;;;;5062078;28;20123;-57
2021/05/12 00:14:22;;;;;;;25.27;18.00;;;12.50;94.20;;;;;;5075092;28;20075;-57
2021/05/12 00:16:48;;;;;;;28.45;18.17;;;12.50;94.20;;;;;;5067233;28;20044;-57
2021/05/12 00:19:18;;;;;;;28.45;20.08;;;12.50;94.20;;;;;;5073597;28;20388;-56
2021/05/12 00:21:49;;;;;;;28.63;19.60;;;12.50;94.20;;;;;;5050295;28;20044;-56
2021/05/12 00:24:15;;;;;;;29.27;19.85;;;12.50;94.20;;;;;;5064319;28;20041;-57
2021/05/12 00:26:42;;;;;;;30.88;19.88;;;12.50;94.20;;;;;;5074415;28;20082;-57
2021/05/12 00:29:13;;;;;;;27.77;19.40;;;12.50;94.20;;;;;;5073460;28;20051;-57
2021/05/12 00:31:40;;;;;;;31.85;19.90;;;12.40;94.20;;;;;;5070251;28;20041;-57
2021/05/12 00:34:08;;;;;;;29.02;20.35;;;12.40;94.20;;;;;;5063599;28;20407;-54
2021/05/12 00:36:34;;;;;;;24.67;18.17;;;12.40;94.20;;;;;;5074091;28;20090;-55
2021/05/12 00:39:06;;;;;;;27.73;18.92;;;12.40;94.20;;;;;;5073129;28;20295;-54
2021/05/12 00:41:34;;;;;;;29.43;19.00;;;12.40;94.30;;;;;;5059487;28;20040;-50
2021/05/12 00:44:00;;;;;;;28.00;19.05;;;12.40;94.30;;;;;;5073866;28;20044;-53
2021/05/12 00:46:26;;;;;;;23.25;18.33;;;12.30;94.30;;;;;;5061604;28;20037;-55
2021/05/12 00:48:51;;;;;;;26.88;18.10;;;12.30;94.30;;;;;;5069914;28;20135;-53
2021/05/12 00:51:17;;;;;;;25.42;17.55;;;12.30;94.30;;;;;;5063747;28;20052;-54
2021/05/12 00:53:42;;;;;;;23.92;18.15;;;12.20;94.20;;;;;;5062720;28;20388;-55
2021/05/12 00:56:11;;;;;;;23.98;16.75;;;12.20;94.20;;;;;;5065923;28;20099;-54
2021/05/12 00:58:37;;;;;;;25.15;17.55;;;12.20;94.20;;;;;;5067416;28;20060;-54
2021/05/12 01:01:03;;;;;;;23.08;17.55;;;12.20;94.30;;;;;;5052863;28;20086;-55
2021/05/12 01:03:28;;;;;;;23.50;16.63;;;12.20;94.30;;;;;;5073626;28;20483;-55
2021/05/12 01:05:54;;;;;;;22.42;16.60;;;12.10;94.30;;;;;;5072997;28;20052;-57
2021/05/12 01:08:20;;;;;;;20.67;16.60;;;12.10;94.30;;;;;;5072659;28;20516;-54
2021/05/12 01:10:46;;;;;;;21.52;16.63;;;12.10;94.30;;;;;;5070361;28;20108;-54
2021/05/12 01:13:13;;;;;;;21.25;16.63;;;12.10;94.40;;;;;;5073211;28;20136;-55
2021/05/12 01:15:40;;;;;;;25.48;17.65;;;12.10;94.40;;;;;;5072829;28;20080;-54
2021/05/12 01:18:11;;;;;;;24.80;18.70;;;12.10;94.30;;;;;;5061093;28;20111;-57
2021/05/12 01:21:00;;;;;;;26.25;18.55;;;12.10;94.30;;;;;;5061047;28;20102;-57
2021/05/12 01:23:31;;;;;;;28.48;19.40;;;12.10;94.30;;;;;;5063955;28;20115;-57
2021/05/12 01:25:59;;;;;;;26.05;18.80;;;12.10;94.30;;;;;;5071467;28;20463;-56
2021/05/12 01:28:29;;;;;;;27.35;18.90;;;12.10;94.30;;;;;;5069312;28;20467;-56
2021/05/12 01:31:02;;;;;;;30.08;19.50;;;12.10;94.40;;;;;;5059038;28;20069;-56
2021/05/12 01:33:28;;;;;;;26.27;18.95;;;12.10;94.40;;;;;;5044092;28;20039;-55
2021/05/12 01:35:57;;;;;;;30.80;19.45;;;12.10;94.40;;;;;;5061270;28;20049;-55
2021/05/12 01:38:25;;;;;;;30.65;19.23;;;12.10;94.50;;;;;;5038466;28;20090;-55
2021/05/12 01:40:51;;;;;;;29.58;19.95;;;12.00;94.40;;;;;;5071881;28;20468;-55
2021/05/12 01:43:17;;;;;;;32.85;20.15;;;12.00;94.40;;;;;;5067566;28;20128;-56
2021/05/12 01:45:42;;;;;;;32.58;20.45;;;12.00;94.40;;;;;;5065304;28;20123;-54
2021/05/12 01:48:10;;;;;;;31.02;20.52;;;12.00;94.40;;;;;;5067657;28;20121;-52
2021/05/12 01:50:37;;;;;;;29.95;21.25;;;12.00;94.40;;;;;;5067056;28;20064;-53
2021/05/12 01:53:04;;;;;;;31.25;19.48;;;12.00;94.40;;;;;;5049563;28;20066;-55
2021/05/12 01:55:30;;;;;;;28.48;19.75;;;12.00;94.40;;;;;;5070459;28;20447;-54
2021/05/12 01:57:57;;;;;;;33.40;20.77;;;11.90;94.20;;;;;;5071176;28;20044;-53
2021/05/12 02:00:35;;;;;;;28.73;19.83;;;11.90;94.20;;;;;;5072667;28;20094;-53
2021/05/12 02:03:07;;;;;;;26.63;18.98;;;11.90;94.30;;;;;;5014556;28;20120;-55
2021/05/12 02:05:34;;;;;;;26.00;19.13;;;11.90;94.40;;;;;;5055284;28;20127;-53
2021/05/12 02:08:04;;;;;;;31.25;20.67;;;11.90;94.40;;;;;;5032269;28;20159;-53
2021/05/12 02:10:31;;;;;;;32.08;22.15;;;11.90;94.40;;;;;;5061394;28;20057;-54
2021/05/12 02:12:57;;;;;;;38.95;22.90;;;11.90;94.50;;;;;;5071906;28;20136;-54
2021/05/12 02:15:24;;;;;;;37.50;22.23;;;11.90;94.50;;;;;;5071970;28;20119;-51
2021/05/12 02:17:50;;;;;;;35.10;22.55;;;11.90;94.50;;;;;;5068171;28;20039;-55
2021/05/12 02:20:19;;;;;;;34.55;22.83;;;11.90;94.50;;;;;;5071622;28;20447;-55
2021/05/12 02:22:45;;;;;;;36.30;22.73;;;11.90;94.60;;;;;;5066827;28;20071;-54
2021/05/12 02:25:10;;;;;;;37.83;23.70;;;11.90;94.60;;;;;;5071702;28;20064;-56
2021/05/12 02:27:37;;;;;;;36.80;22.95;;;11.90;94.60;;;;;;5071409;28;20037;-54
2021/05/12 02:30:07;;;;;;;35.60;23.65;;;11.90;94.60;;;;;;5071977;28;20044;-53
2021/05/12 02:32:35;;;;;;;36.10;23.85;;;11.90;94.60;;;;;;5052736;28;20068;-52
2021/05/12 02:35:04;;;;;;;40.80;25.15;;;11.90;94.60;;;;;;5058524;28;20133;-51
2021/05/12 02:37:29;;;;;;;37.17;25.38;;;11.90;94.60;;;;;;5057904;28;20385;-53
2021/05/12 02:39:55;;;;;;;40.28;24.88;;;11.90;94.60;;;;;;5052269;28;20044;-54
2021/05/12 02:42:21;;;;;;;38.42;25.20;;;11.80;94.50;;;;;;5066367;28;20400;-53
2021/05/12 02:44:47;;;;;;;41.65;25.98;;;11.90;94.60;;;;;;5068590;28;20040;-52
2021/05/12 02:47:13;;;;;;;37.15;24.27;;;11.90;94.60;;;;;;5061831;28;20043;-54
2021/05/12 02:49:39;;;;;;;35.42;22.95;;;11.90;94.60;;;;;;5069437;28;20409;-54
2021/05/12 02:52:06;;;;;;;36.60;24.05;;;11.90;94.60;;;;;;5065214;28;20044;-53
2021/05/12 02:54:32;;;;;;;34.13;22.58;;;11.80;94.60;;;;;;5059460;28;20094;-52
2021/05/12 02:56:58;;;;;;;32.40;22.77;;;11.80;94.50;;;;;;5061806;28;20036;-54
2021/05/12 02:59:25;;;;;;;31.65;22.45;;;11.80;94.50;;;;;;5062152;28;20127;-52
2021/05/12 03:01:52;;;;;;;32.72;22.17;;;11.70;94.50;;;;;;5049796;28;20056;-54
2021/05/12 03:04:19;;;;;;;35.65;22.05;;;11.70;94.50;;;;;;5066373;28;20044;-54
2021/05/12 03:06:45;;;;;;;30.75;22.00;;;11.70;94.50;;;;;;5031053;28;20417;-55
2021/05/12 03:09:11;;;;;;;32.05;22.35;;;11.70;94.50;;;;;;5065235;28;20032;-54
2021/05/12 03:11:37;;;;;;;35.80;21.90;;;11.70;94.50;;;;;;5066301;28;20044;-55
2021/05/12 03:14:05;;;;;;;35.03;22.67;;;11.60;94.50;;;;;;5065810;28;20491;-52
2021/05/12 03:16:31;;;;;;;34.60;21.55;;;11.60;94.50;;;;;;5067584;28;20548;-55
2021/05/12 03:18:58;;;;;;;28.70;21.33;;;11.60;94.50;;;;;;5059708;28;20455;-54
2021/05/12 03:21:24;;;;;;;34.78;23.73;;;11.60;94.50;;;;;;5031505;28;20072;-55
2021/05/12 03:23:50;;;;;;;28.77;22.20;;;11.60;94.50;;;;;;5013220;28;20051;-55
2021/05/12 03:26:17;;;;;;;35.10;23.60;;;11.60;94.60;;;;;;5059812;28;20075;-54
2021/05/12 03:28:44;;;;;;;33.20;22.75;;;11.60;94.60;;;;;;5049924;28;20037;-56
2021/05/12 03:31:11;;;;;;;30.50;21.25;;;11.50;94.60;;;;;;5069459;28;20119;-56
2021/05/12 03:33:37;;;;;;;25.55;19.08;;;11.50;94.60;;;;;;5051363;28;20439;-56
2021/05/12 03:36:04;;;;;;;29.33;20.10;;;11.50;94.60;;;;;;5070637;28;20412;-56
2021/05/12 03:38:30;;;;;;;58.08;17.77;;;11.50;94.60;;;;;;5070177;28;20044;-53
2021/05/12 03:40:57;;;;;;;26.40;18.73;;;11.50;94.60;;;;;;5068378;28;20124;-54
2021/05/12 03:43:23;;;;;;;24.63;18.10;;;11.50;94.60;;;;;;5069930;28;20049;-54
2021/05/12 03:45:49;;;;;;;29.42;19.95;;;11.50;94.50;;;;;;5069851;28;20592;-54
2021/05/12 03:48:15;;;;;;;29.23;19.40;;;11.40;94.50;;;;;;5063964;28;20127;-57
2021/05/12 03:50:41;;;;;;;27.65;19.58;;;11.40;94.40;;;;;;5067811;28;20044;-55
2021/05/12 03:53:08;;;;;;;31.10;21.17;;;11.40;94.40;;;;;;5066112;28;20048;-55
2021/05/12 03:55:34;;;;;;;28.80;20.73;;;11.30;94.50;;;;;;5069666;28;20045;-55
2021/05/12 03:58:01;;;;;;;30.65;20.55;;;11.30;94.50;;;;;;5070603;28;20117;-54
2021/05/12 04:00:27;;;;;;;31.60;20.25;;;11.30;94.50;;;;;;5044793;28;20037;-56
2021/05/12 04:02:54;;;;;;;31.67;21.23;;;11.30;94.60;;;;;;5063999;28;20166;-54
2021/05/12 04:05:20;;;;;;;29.98;20.88;;;11.20;94.60;;;;;;5050581;28;20039;-52
2021/05/12 04:07:47;;;;;;;28.60;19.92;;;11.30;94.70;;;;;;5067970;28;20037;-52
2021/05/12 04:10:13;;;;;;;32.30;20.17;;;11.30;94.70;;;;;;5064052;28;20111;-51
2021/05/12 04:12:38;;;;;;;34.58;20.48;;;11.30;94.60;;;;;;5070176;28;20452;-55
2021/05/12 04:15:06;;;;;;;28.63;19.50;;;11.30;94.70;;;;;;5069373;28;20044;-52
2021/05/12 04:17:31;;;;;;;30.63;19.02;;;11.30;94.60;;;;;;5061784;28;20066;-52
2021/05/12 04:19:57;;;;;;;116.15;20.60;;;11.30;94.70;;;;;;5069162;28;20545;-51
2021/05/12 04:22:23;;;;;;;277.83;26.15;;;11.30;94.70;;;;;;5061364;28;20098;-54
2021/05/12 04:24:51;;;;;;;127.88;18.92;;;11.30;94.70;;;;;;5045707;28;20127;-54
2021/05/12 04:27:17;;;;;;;212.05;21.45;;;11.30;94.80;;;;;;5067462;28;20449;-52
2021/05/12 04:29:44;;;;;;;92.78;18.92;;;11.30;94.70;;;;;;5067208;28;20032;-52
2021/05/12 04:32:09;;;;;;;70.05;18.88;;;11.20;94.80;;;;;;5054638;28;20037;-54
2021/05/12 04:34:35;;;;;;;26.65;17.60;;;11.20;94.70;;;;;;5073622;28;20094;-52
2021/05/12 04:37:02;;;;;;;25.63;18.05;;;11.30;94.70;;;;;;5072609;28;20044;-52
2021/05/12 04:39:28;;;;;;;26.08;18.20;;;11.30;94.70;;;;;;5071546;28;20047;-56
2021/05/12 04:41:55;;;;;;;21.30;16.13;;;11.30;94.70;;;;;;5060038;28;20056;-53
2021/05/12 04:44:21;;;;;;;22.20;16.48;;;11.30;94.60;;;;;;5054117;28;20070;-55
2021/05/12 04:46:49;;;;;;;24.90;17.17;;;11.30;94.60;;;;;;5068488;28;20068;-52
2021/05/12 04:49:17;;;;;;;21.52;15.50;;;11.20;94.50;;;;;;5061980;28;20047;-54
2021/05/12 04:51:43;;;;;;;22.15;16.30;;;11.30;94.50;;;;;;5062703;28;20059;-56
2021/05/12 04:54:11;;;;;;;25.65;17.33;;;11.30;94.60;;;;;;5061648;28;20404;-55
2021/05/12 04:56:37;;;;;;;25.63;18.17;;;11.30;94.50;;;;;;5062573;28;20044;-55
2021/05/12 04:59:03;;;;;;;26.55;19.10;;;11.30;94.50;;;;;;5066428;28;20048;-56
2021/05/12 05:01:30;;;;;;;27.52;20.60;;;11.40;94.50;;;;;;5071703;28;20043;-55
2021/05/12 05:03:58;;;;;;;27.83;19.67;;;11.40;94.50;;;;;;5074102;28;20041;-52
2021/05/12 05:06:24;;;;;;;27.95;19.23;;;11.40;94.50;;;;;;5072570;28;20542;-54
2021/05/12 05:08:50;;;;;;;25.92;19.38;;;11.50;94.50;;;;;;5072973;28;20072;-54
2021/05/12 05:11:15;;;;;;;26.45;18.95;;;11.60;94.40;;;;;;5072474;28;20090;-54
2021/05/12 05:13:41;;;;;;;23.17;17.67;;;11.70;94.40;;;;;;5064611;28;20071;-53
2021/05/12 05:16:09;;;;;;;22.40;16.98;;;11.80;94.30;;;;;;5069450;28;20094;-51
2021/05/12 05:18:36;;;;;;;23.08;16.42;;;12.00;94.00;;;;;;5039941;28;20046;-54
2021/05/12 05:21:05;;;;;;;21.02;15.32;;;12.10;93.70;;;;;;5034576;28;20048;-54
2021/05/12 05:23:35;;;;;;;20.57;14.73;;;12.20;93.60;;;;;;5072309;28;20071;-55
2021/05/12 05:26:02;;;;;;;17.38;13.63;;;12.30;93.30;;;;;;5071792;28;20290;-55
2021/05/12 05:28:28;;;;;;;22.55;14.82;;;12.60;92.80;;;;;;5057706;28;20043;-54
2021/05/12 05:30:53;;;;;;;19.67;12.38;;;12.80;92.30;;;;;;5070580;28;20544;-54
2021/05/12 05:33:20;;;;;;;14.85;11.23;;;12.90;91.70;;;;;;5066529;28;20045;-54
2021/05/12 05:35:45;;;;;;;14.68;10.60;;;13.00;91.40;;;;;;5071758;28;20462;-52
2021/05/12 05:38:12;;;;;;;14.98;9.13;;;13.00;91.10;;;;;;5071219;28;20040;-55
2021/05/12 05:40:38;;;;;;;15.05;9.02;;;13.10;90.60;;;;;;5066384;28;20496;-53
2021/05/12 05:43:08;;;;;;;14.63;8.45;;;13.00;90.00;;;;;;5031035;28;20083;-51
2021/05/12 05:45:34;;;;;;;15.63;8.20;;;13.10;89.70;;;;;;5053685;28;20423;-53
2021/05/12 05:48:00;;;;;;;15.27;8.05;;;13.20;89.60;;;;;;5071281;28;20064;-54
2021/05/12 05:50:26;;;;;;;13.50;8.15;;;13.20;89.00;;;;;;5072140;28;20523;-54
2021/05/12 05:52:56;;;;;;;13.25;7.65;;;13.40;88.50;;;;;;5061105;28;20044;-54
2021/05/12 05:55:22;;;;;;;12.70;7.32;;;13.70;87.10;;;;;;5071043;28;20040;-54
2021/05/12 05:57:51;;;;;;;12.38;7.20;;;14.00;86.20;;;;;;5069849;28;20079;-53
2021/05/12 06:00:21;;;;;;;14.50;6.88;;;14.20;84.90;;;;;;5072511;28;20236;-54
2021/05/12 06:02:48;;;;;;;14.23;6.50;;;14.40;84.00;;;;;;5022838;28;20037;-54
2021/05/12 06:05:15;;;;;;;11.32;5.75;;;14.50;83.00;;;;;;5053214;28;20057;-54
2021/05/12 06:07:41;;;;;;;10.93;5.70;;;14.60;82.20;;;;;;5054153;28;20037;-53
2021/05/12 06:10:08;;;;;;;10.77;6.18;;;14.70;81.40;;;;;;5053584;28;20059;-54
2021/05/12 06:12:34;;;;;;;12.98;7.75;;;14.80;81.00;;;;;;5072180;28;20447;-54
2021/05/12 06:15:00;;;;;;;12.60;7.22;;;14.90;81.70;;;;;;5059055;28;20047;-54
2021/05/12 06:17:26;;;;;;;13.25;7.53;;;14.80;82.50;;;;;;5053273;28;20451;-54
2021/05/12 06:19:53;;;;;;;15.35;7.03;;;14.60;82.90;;;;;;5071027;28;20036;-53
2021/05/12 06:22:20;;;;;;;14.10;6.97;;;14.50;82.60;;;;;;5062672;28;20071;-53
2021/05/12 06:24:47;;;;;;;11.48;5.93;;;14.40;83.40;;;;;;5067299;28;20079;-51
2021/05/12 06:27:13;;;;;;;12.95;6.13;;;14.30;83.50;;;;;;5046045;28;20458;-55
2021/05/12 06:29:39;;;;;;;14.43;5.40;;;14.30;83.00;;;;;;5044264;28;20037;-53
2021/05/12 06:32:06;;;;;;;11.93;5.40;;;14.30;82.30;;;;;;5050438;28;20128;-55
2021/05/12 06:34:34;;;;;;;9.48;5.00;;;14.20;81.60;;;;;;5071876;28;20174;-53
2021/05/12 06:37:02;;;;;;;10.80;5.30;;;14.20;81.90;;;;;;5024762;28;20044;-56
2021/05/12 06:39:28;;;;;;;14.38;5.93;;;14.00;81.90;;;;;;5071033;28;20036;-56
2021/05/12 06:41:53;;;;;;;13.82;6.05;;;14.00;81.40;;;;;;5068640;28;20516;-56
2021/05/12 06:44:21;;;;;;;10.85;5.60;;;14.00;81.40;;;;;;5060028;28;20524;-55
2021/05/12 06:46:48;;;;;;;13.68;5.53;;;14.00;81.70;;;;;;5070129;28;20087;-56
2021/05/12 06:49:14;;;;;;;11.75;5.30;;;14.00;81.50;;;;;;5067304;28;20126;-55
2021/05/12 06:51:39;;;;;;;11.50;5.68;;;14.10;81.50;;;;;;5067838;28;20045;-56
2021/05/12 06:54:06;;;;;;;11.10;5.70;;;14.10;81.10;;;;;;5048593;28;20043;-56
2021/05/12 06:56:31;;;;;;;13.07;5.03;;;14.10;81.10;;;;;;5061545;28;20037;-56
2021/05/12 06:58:58;;;;;;;10.52;4.63;;;14.10;81.20;;;;;;5053479;28;20515;-56
2021/05/12 07:01:24;;;;;;;9.95;4.57;;;14.20;80.60;;;;;;5071461;28;20115;-56
2021/05/12 07:03:50;;;;;;;10.23;4.80;;;14.20;79.00;;;;;;5058538;28;20037;-55
2021/05/12 07:06:17;;;;;;;12.77;4.25;;;14.30;79.00;;;;;;5067829;28;20131;-53
2021/05/12 07:08:48;;;;;;;12.70;4.28;;;14.30;78.90;;;;;;5036769;28;20103;-54
2021/05/12 07:11:14;;;;;;;10.65;3.63;;;14.30;78.30;;;;;;5054205;28;20219;-54
2021/05/12 07:13:41;;;;;;;10.52;4.05;;;14.40;78.90;;;;;;5070838;28;20063;-53
2021/05/12 07:16:07;;;;;;;10.75;4.53;;;14.40;78.90;;;;;;5053078;28;20572;-54
2021/05/12 07:18:37;;;;;;;13.98;4.30;;;14.50;78.60;;;;;;5038160;28;20068;-54
2021/05/12 07:21:03;;;;;;;12.63;4.43;;;14.60;77.90;;;;;;5071211;28;20071;-56
2021/05/12 07:23:32;;;;;;;11.13;3.90;;;14.70;78.50;;;;;;5070190;28;20127;-54
2021/05/12 07:25:58;;;;;;;13.63;3.92;;;14.80;78.40;;;;;;5067604;28;20067;-55
2021/05/12 07:28:24;;;;;;;10.20;3.65;;;14.90;77.30;;;;;;5067053;28;20044;-55
2021/05/12 07:30:51;;;;;;;9.10;3.55;;;15.00;77.10;;;;;;5061275;28;20033;-56
2021/05/12 07:33:17;;;;;;;14.05;4.00;;;15.10;76.60;;;;;;5028702;28;20044;-56
2021/05/12 07:35:43;;;;;;;10.40;3.75;;;15.10;76.90;;;;;;5056536;28;20100;-53
2021/05/12 07:38:16;;;;;;;8.73;3.30;;;15.10;76.30;;;;;;5050907;28;20045;-55
2021/05/12 07:40:43;;;;;;;11.43;3.40;;;15.10;76.10;;;;;;5059591;28;20128;-57
2021/05/12 07:43:11;;;;;;;14.40;3.05;;;15.20;75.20;;;;;;5061294;28;20064;-56
2021/05/12 07:45:41;;;;;;;11.07;2.72;;;15.30;75.90;;;;;;5032859;28;20852;-54
2021/05/12 07:48:09;;;;;;;10.23;2.85;;;15.40;76.90;;;;;;5052884;28;20470;-53
2021/05/12 07:50:36;;;;;;;11.82;2.58;;;15.40;77.00;;;;;;5070006;28;20048;-55
2021/05/12 07:53:03;;;;;;;9.38;2.50;;;15.50;76.80;;;;;;5067931;28;20476;-53
2021/05/12 07:55:48;;;;;;;5.40;2.10;;;15.60;76.60;;;;;;5049411;28;20044;-55
2021/05/12 07:58:14;;;;;;;8.10;2.20;;;15.60;75.90;;;;;;5066527;28;20044;-54
2021/05/12 08:00:45;;;;;;;8.48;2.15;;;15.60;75.20;;;;;;5071973;28;20408;-55
2021/05/12 08:03:11;;;;;;;7.85;2.08;;;15.70;76.10;;;;;;5061288;28;20044;-54
2021/05/12 08:05:37;;;;;;;9.50;2.28;;;15.70;75.20;;;;;;5074682;28;20087;-52
2021/05/12 08:08:24;;;;;;;10.07;2.45;;;15.70;74.10;;;;;;5045036;28;20045;-53
2021/05/12 08:10:55;;;;;;;;;;;15.80;74.50;;;;;;5042792;28;20075;-55
2021/05/12 08:13:22;;;;;;;10.95;2.25;;;15.80;74.60;;;;;;5074365;28;19920;-54
2021/05/12 08:16:08;;;;;;;8.85;2.22;;;15.90;74.70;;;;;;5049902;28;20088;-53
2021/05/12 08:18:34;;;;;;;9.45;2.13;;;15.80;72.90;;;;;;5067937;28;20116;-52
2021/05/12 08:21:03;;;;;;;10.05;2.15;;;15.90;72.50;;;;;;5066622;28;20044;-53
2021/05/12 08:23:29;;;;;;;13.70;2.38;;;15.90;72.50;;;;;;5074412;28;20048;-54
2021/05/12 08:25:56;;;;;;;6.28;2.15;;;15.90;72.80;;;;;;5070549;28;20045;-54
2021/05/12 08:28:22;;;;;;;9.98;2.33;;;16.00;72.60;;;;;;5071538;28;20051;-54
2021/05/12 08:30:48;;;;;;;11.15;2.38;;;16.00;72.80;;;;;;5073273;28;20111;-54
2021/05/12 08:33:15;;;;;;;7.07;1.70;;;16.10;73.20;;;;;;5069876;28;20159;-54
2021/05/12 08:36:00;;;;;;;8.45;2.38;;;16.20;72.20;;;;;;5063925;28;20045;-56
2021/05/12 08:38:46;;;;;;;7.93;2.00;;;16.20;70.90;;;;;;5058781;28;20052;-56
2021/05/12 08:41:14;;;;;;;7.78;2.05;;;16.30;71.60;;;;;;5068517;28;20040;-56
2021/05/12 08:43:41;;;;;;;9.95;2.35;;;16.20;71.10;;;;;;5063516;28;20047;-54
2021/05/12 08:46:09;;;;;;;5.72;1.60;;;16.20;70.70;;;;;;5045684;28;20104;-55
2021/05/12 08:48:37;;;;;;;9.00;2.35;;;16.20;70.10;;;;;;5053830;28;20041;-56
2021/05/12 08:51:05;;;;;;;5.75;2.13;;;16.30;69.50;;;;;;5050600;28;20569;-56
2021/05/12 08:53:32;;;;;;;8.85;1.88;;;16.40;70.90;;;;;;5064064;28;20515;-55
2021/05/12 08:56:02;;;;;;;6.97;1.90;;;16.40;69.60;;;;;;5070137;28;20075;-56
2021/05/12 08:58:28;;;;;;;8.00;2.22;;;16.50;71.20;;;;;;5072386;28;20412;-55
2021/05/12 09:00:55;;;;;;;10.13;2.10;;;16.60;70.20;;;;;;5072932;28;20048;-55
2021/05/12 09:03:21;;;;;;;8.38;1.70;;;16.60;69.30;;;;;;5055874;28;20594;-55
2021/05/12 09:05:47;;;;;;;9.15;2.13;;;16.60;69.60;;;;;;5074186;28;20108;-55
2021/05/12 09:08:14;;;;;;;7.82;2.17;;;16.60;69.30;;;;;;5062285;28;20044;-55
2021/05/12 09:10:41;;;;;;;11.23;2.20;;;16.60;70.40;;;;;;5071828;28;20040;-55
2021/05/12 09:13:07;;;;;;;12.48;2.85;;;16.70;70.80;;;;;;5073131;28;20032;-55
2021/05/12 09:15:36;;;;;;;11.65;2.10;;;16.70;70.50;;;;;;5076789;28;20130;-55
2021/05/12 09:18:05;;;;;;;9.48;1.83;;;16.80;69.80;;;;;;5062350;28;20045;-56
2021/05/12 09:20:37;;;;;;;6.55;2.15;;;16.70;68.70;;;;;;5075974;28;20109;-55
2021/05/12 09:23:12;;;;;;;8.48;1.88;;;16.70;67.30;;;;;;5077570;28;20045;-55
2021/05/12 09:25:40;;;;;;;7.40;1.88;;;16.80;68.10;;;;;;5055695;28;20052;-55
2021/05/12 09:28:12;;;;;;;10.48;2.38;;;16.80;68.10;;;;;;5069208;28;20037;-56
2021/05/12 09:31:03;;;;;;;7.47;1.70;;;17.00;67.30;;;;;;5074894;28;20043;-55
2021/05/12 09:33:30;;;;;;;6.13;2.00;;;17.00;65.50;;;;;;5023431;28;20521;-55
2021/05/12 09:35:58;;;;;;;11.10;1.90;;;16.90;65.00;;;;;;5059773;28;20064;-55
2021/05/12 09:38:29;;;;;;;6.38;1.70;;;17.00;66.20;;;;;;5077064;28;20167;-55
2021/05/12 09:41:11;;;;;;;13.30;2.08;;;17.10;65.30;;;;;;5068783;28;20049;-56
2021/05/12 09:43:50;;;;;;;9.88;1.67;;;17.20;64.40;;;;;;5072306;28;20047;-55
2021/05/12 09:46:25;;;;;;;8.73;1.83;;;17.10;64.30;;;;;;5065001;28;20032;-54
2021/05/12 09:49:06;;;;;;;7.30;1.55;;;17.10;64.40;;;;;;5042465;28;20047;-51
2021/05/12 09:51:38;;;;;;;7.53;1.73;;;17.10;61.40;;;;;;5040854;28;20044;-52
2021/05/12 09:54:09;;;;;;;7.93;2.07;;;17.20;64.30;;;;;;5034124;28;20295;-55
2021/05/12 09:56:58;;;;;;;7.75;1.88;;;17.10;64.50;;;;;;5076917;28;20040;-52
2021/05/12 09:59:27;;;;;;;10.07;2.45;;;17.30;65.50;;;;;;5059899;28;20112;-52
2021/05/12 10:02:04;;;;;;;8.18;2.50;;;17.30;66.10;;;;;;5077350;28;20071;-55
2021/05/12 10:04:39;;;;;;;13.57;2.40;;;17.30;65.50;;;;;;5043935;28;20048;-55
2021/05/12 10:07:20;;;;;;;12.13;2.17;;;17.40;66.00;;;;;;5058793;28;20131;-55
2021/05/12 10:09:55;;;;;;;13.88;2.88;;;17.40;65.60;;;;;;5030011;28;20378;-56
2021/05/12 10:12:26;;;;;;;9.07;1.70;;;17.50;66.50;;;;;;5077213;28;20040;-56
2021/05/12 10:14:57;;;;;;;9.75;2.10;;;17.60;64.50;;;;;;5059926;28;20105;-56
2021/05/12 10:17:28;;;;;;;10.27;2.20;;;17.60;63.20;;;;;;5067221;28;20151;-56
2021/05/12 10:19:55;;;;;;;14.15;2.58;;;17.60;64.60;;;;;;5037267;28;20045;-56
2021/05/12 10:22:22;;;;;;;7.75;2.00;;;17.70;64.30;;;;;;5062014;28;20515;-56
2021/05/12 10:24:49;;;;;;;10.13;2.03;;;17.80;64.50;;;;;;5078917;28;20040;-56
2021/05/12 10:27:30;;;;;;;11.77;2.28;;;17.70;64.10;;;;;;5060738;28;20044;-56
2021/05/12 10:29:58;;;;;;;9.75;2.17;;;17.80;63.80;;;;;;5074217;28;20402;-57
2021/05/12 10:32:34;;;;;;;7.80;2.03;;;17.90;64.30;;;;;;5067360;28;21563;-56
2021/05/12 10:35:14;;;;;;;10.32;2.90;;;17.90;62.00;;;;;;5068397;28;20048;-57
2021/05/12 10:37:46;;;;;;;9.05;2.17;;;18.00;61.10;;;;;;5054682;28;20041;-56
2021/05/12 10:40:15;;;;;;;8.48;2.30;;;17.90;62.10;;;;;;5050267;28;20086;-55
2021/05/12 10:42:54;;;;;;;9.45;2.20;;;18.00;62.50;;;;;;5072302;28;20043;-56
2021/05/12 10:45:34;;;;;;;8.85;2.20;;;17.90;61.30;;;;;;5054875;28;20132;-56
2021/05/12 10:48:01;;;;;;;10.55;2.00;;;17.80;62.30;;;;;;5054168;28;20120;-56
2021/05/12 10:50:47;;;;;;;12.07;2.13;;;17.80;64.00;;;;;;5063964;28;20041;-56
2021/05/12 10:53:25;;;;;;;11.32;2.28;;;17.70;64.00;;;;;;5066427;28;20052;-56
2021/05/12 10:56:00;;;;;;;12.32;2.65;;;17.70;63.90;;;;;;5065409;28;20214;-56
2021/05/12 10:58:31;;;;;;;8.40;2.03;;;17.60;63.40;;;;;;5052348;28;20040;-56
2021/05/12 11:00:56;;;;;;;9.30;2.35;;;17.40;62.90;;;;;;5069561;28;20516;-56
2021/05/12 11:03:45;;;;;;;8.15;1.90;;;17.10;63.30;;;;;;5057185;28;20074;-55
2021/05/12 11:06:10;;;;;;;6.97;1.85;;;17.10;64.40;;;;;;5070833;28;20102;-56
2021/05/12 11:09:07;;;;;;;7.95;1.90;;;17.30;64.20;;;;;;5070937;28;20465;-55
2021/05/12 11:11:43;;;;;;;9.13;2.28;;;17.50;62.90;;;;;;5062676;28;20044;-55
2021/05/12 11:14:36;;;;;;;7.90;1.90;;;17.60;63.40;;;;;;5053212;28;20464;-54
2021/05/12 11:17:10;;;;;;;7.53;1.67;;;17.80;61.90;;;;;;5038002;28;20407;-56
2021/05/12 11:22:42;;;;;;;10.75;1.98;;;18.10;61.60;;;;;;5071731;28;20045;-53
2021/05/12 11:33:38;;;;;;;12.15;2.08;;;18.10;61.70;;;;;;5070185;28;20047;-52
2021/05/12 11:36:11;;;;;;;10.50;2.25;;;18.30;61.40;;;;;;5063562;28;20044;-55
2021/05/12 11:38:39;;;;;;;12.90;2.00;;;18.40;61.30;;;;;;5063909;28;20028;-55
2021/05/12 11:41:09;;;;;;;11.88;2.25;;;18.10;60.40;;;;;;5035886;28;20044;-56
2021/05/12 11:43:43;;;;;;;7.63;1.90;;;18.10;61.10;;;;;;5060907;28;20037;-52
2021/05/12 11:46:20;;;;;;;11.63;2.40;;;18.00;60.70;;;;;;5067145;28;20036;-56
2021/05/12 11:48:49;;;;;;;9.23;2.20;;;17.80;60.50;;;;;;5068730;28;20048;-55
2021/05/12 11:51:18;;;;;;;9.73;2.17;;;17.70;61.30;;;;;;5049992;28;20037;-53
2021/05/12 11:53:44;;;;;;;9.05;2.30;;;17.90;62.50;;;;;;5070953;28;20037;-53
2021/05/12 11:56:12;;;;;;;9.40;2.00;;;18.00;62.10;;;;;;5060062;28;20839;-55
2021/05/12 11:58:41;;;;;;;8.32;1.75;;;18.10;61.50;;;;;;5070813;28;20045;-56
2021/05/12 12:01:08;;;;;;;18.23;3.00;;;18.00;61.10;;;;;;5071178;28;20100;-55
2021/05/12 12:03:40;;;;;;;13.98;2.30;;;17.80;60.50;;;;;;5071042;28;20041;-56
2021/05/12 12:06:05;;;;;;;10.15;1.92;;;17.90;61.40;;;;;;5071104;28;20060;-55
2021/05/12 12:08:32;;;;;;;8.18;2.03;;;18.00;59.50;;;;;;5059672;28;20147;-55
2021/05/12 12:11:09;;;;;;;9.70;2.10;;;18.10;58.40;;;;;;5070691;28;20128;-54
2021/05/12 12:13:35;;;;;;;11.27;2.30;;;18.20;58.40;;;;;;5064231;28;20036;-55
2021/05/12 12:16:02;;;;;;;8.82;1.60;;;18.30;59.50;;;;;;5054939;28;20591;-55
2021/05/12 12:18:36;;;;;;;6.47;1.42;;;18.40;55.80;;;;;;5058088;28;20032;-56
2021/05/12 12:21:03;;;;;;;7.70;1.48;;;18.60;56.00;;;;;;5062421;28;20394;-54
2021/05/12 12:23:33;;;;;;;8.38;1.73;;;18.60;54.10;;;;;;5036847;28;20044;-57
2021/05/12 12:26:17;;;;;;;6.57;1.55;;;18.50;54.00;;;;;;5068473;28;20091;-54
2021/05/12 12:29:06;;;;;;;7.20;1.70;;;18.50;55.40;;;;;;5046758;28;20052;-55
2021/05/12 12:31:47;;;;;;;7.25;1.83;;;18.50;50.90;;;;;;5067593;28;20138;-54
2021/05/12 12:34:14;;;;;;;6.30;1.70;;;18.50;53.30;;;;;;5061315;28;20115;-55
2021/05/12 12:37:03;;;;;;;6.80;1.58;;;18.50;54.10;;;;;;5059383;28;20119;-55
2021/05/12 12:40:04;;;;;;;10.20;1.95;;;18.50;52.90;;;;;;5060185;28;20040;-55
2021/05/12 12:42:40;;;;;;;5.65;1.73;;;18.50;51.90;;;;;;5059963;28;20082;-55
2021/05/12 12:45:31;;;;;;;9.10;1.98;;;18.50;54.40;;;;;;5056515;28;20381;-55
2021/05/12 12:48:04;;;;;;;4.07;1.30;;;18.60;52.80;;;;;;5064562;28;20040;-54
2021/05/12 12:50:32;;;;;;;17.77;2.50;;;18.60;51.90;;;;;;5074578;28;20040;-53
2021/05/12 12:52:59;;;;;;;9.73;2.22;;;18.70;51.50;;;;;;5072437;28;20080;-57
2021/05/12 12:55:33;;;;;;;6.93;1.60;;;18.70;52.50;;;;;;5061690;28;20045;-58
2021/05/12 12:58:07;;;;;;;5.38;1.30;;;18.70;51.70;;;;;;5053126;28;20106;-53